Ofeherto, Hungary
Current Conditions -  °F | °C
As of 8:15 AM on Wednesday 22 Oct 2014 (Local Time) from LHDC Reporting Station
Moderate Rain Moderate Rain  
Wind Chill: 52°   Ceiling: 1000
Heat Index: 52°   Visibility: 2.8mi
Dew Point: 52°   Wind: 5mph
Humidity: 100%   Direction: 50°NE
Pressure: 29.56"   Gusts: NA
Location:  47.93°N, 22.05°E
Report Text: LHDC 220615Z 05004KT 4500 RA BKN010 11/11 Q1001 NOSIG
Loading
Personal Weather Stations






























Interactive Weather Map
Tropical Storm Tracking
New forecast layout! Learn more

10-Day Weather Forecast

Advertisements
Track Severe Weather on mobile